sensor_id;sensor_type;location;lat;lon;timestamp;P1;durP1;ratioP1;P2;durP2;ratioP2
2201;SDS011;1107;48.654;9.250;2022-07-12T00:02:21;6.00;;;5.70;;
2201;SDS011;1107;48.654;9.250;2022-07-12T00:04:48;6.43;;;6.13;;
2201;SDS011;1107;48.654;9.250;2022-07-12T00:07:17;11.60;;;6.60;;
2201;SDS011;1107;48.654;9.250;2022-07-12T00:09:44;5.73;;;5.23;;
2201;SDS011;1107;48.654;9.250;2022-07-12T00:12:11;6.40;;;6.10;;
2201;SDS011;1107;48.654;9.250;2022-07-12T00:14:38;6.53;;;6.23;;
2201;SDS011;1107;48.654;9.250;2022-07-12T00:17:06;6.30;;;6.00;;
2201;SDS011;1107;48.654;9.250;2022-07-12T00:19:33;5.80;;;5.60;;
2201;SDS011;1107;48.654;9.250;2022-07-12T00:22:00;5.90;;;5.60;;
2201;SDS011;1107;48.654;9.250;2022-07-12T00:24:27;6.53;;;6.07;;
2201;SDS011;1107;48.654;9.250;2022-07-12T00:26:54;6.73;;;6.33;;
2201;SDS011;1107;48.654;9.250;2022-07-12T00:29:21;6.20;;;5.90;;
2201;SDS011;1107;48.654;9.250;2022-07-12T00:31:48;6.10;;;5.80;;
2201;SDS011;1107;48.654;9.250;2022-07-12T00:34:17;6.13;;;5.83;;
2201;SDS011;1107;48.654;9.250;2022-07-12T00:36:44;6.50;;;6.10;;
2201;SDS011;1107;48.654;9.250;2022-07-12T00:39:11;6.40;;;6.10;;
2201;SDS011;1107;48.654;9.250;2022-07-12T00:41:38;7.03;;;6.53;;
2201;SDS011;1107;48.654;9.250;2022-07-12T00:44:05;6.90;;;6.50;;
2201;SDS011;1107;48.654;9.250;2022-07-12T00:46:32;5.80;;;5.60;;
2201;SDS011;1107;48.654;9.250;2022-07-12T00:49:00;6.50;;;6.20;;
2201;SDS011;1107;48.654;9.250;2022-07-12T00:51:28;6.90;;;6.60;;
2201;SDS011;1107;48.654;9.250;2022-07-12T00:53:55;6.80;;;6.50;;
2201;SDS011;1107;48.654;9.250;2022-07-12T00:56:24;7.03;;;6.50;;
2201;SDS011;1107;48.654;9.250;2022-07-12T00:58:51;6.80;;;6.40;;
2201;SDS011;1107;48.654;9.250;2022-07-12T01:01:18;7.00;;;6.70;;
2201;SDS011;1107;48.654;9.250;2022-07-12T01:03:47;6.87;;;6.57;;
2201;SDS011;1107;48.654;9.250;2022-07-12T01:06:15;7.63;;;7.23;;
2201;SDS011;1107;48.654;9.250;2022-07-12T01:08:46;7.00;;;6.70;;
2201;SDS011;1107;48.654;9.250;2022-07-12T01:11:14;6.50;;;6.20;;
2201;SDS011;1107;48.654;9.250;2022-07-12T01:13:42;6.93;;;6.53;;
2201;SDS011;1107;48.654;9.250;2022-07-12T01:16:09;6.87;;;6.57;;
2201;SDS011;1107;48.654;9.250;2022-07-12T01:18:39;14.67;;;7.60;;
2201;SDS011;1107;48.654;9.250;2022-07-12T01:21:07;7.57;;;7.23;;
2201;SDS011;1107;48.654;9.250;2022-07-12T01:23:36;7.83;;;7.23;;
2201;SDS011;1107;48.654;9.250;2022-07-12T01:26:04;7.43;;;6.87;;
2201;SDS011;1107;48.654;9.250;2022-07-12T01:28:31;7.87;;;7.07;;
2201;SDS011;1107;48.654;9.250;2022-07-12T01:30:58;7.60;;;7.00;;
2201;SDS011;1107;48.654;9.250;2022-07-12T01:33:25;8.13;;;7.43;;
2201;SDS011;1107;48.654;9.250;2022-07-12T01:35:53;6.87;;;6.57;;
2201;SDS011;1107;48.654;9.250;2022-07-12T01:38:20;7.50;;;7.20;;
2201;SDS011;1107;48.654;9.250;2022-07-12T01:40:48;8.03;;;7.63;;
2201;SDS011;1107;48.654;9.250;2022-07-12T01:43:15;7.03;;;6.73;;
2201;SDS011;1107;48.654;9.250;2022-07-12T01:45:43;9.60;;;7.60;;
2201;SDS011;1107;48.654;9.250;2022-07-12T01:48:10;8.40;;;7.90;;
2201;SDS011;1107;48.654;9.250;2022-07-12T01:50:37;8.07;;;7.67;;
2201;SDS011;1107;48.654;9.250;2022-07-12T01:53:05;8.23;;;7.63;;
2201;SDS011;1107;48.654;9.250;2022-07-12T01:55:33;8.57;;;7.97;;
2201;SDS011;1107;48.654;9.250;2022-07-12T01:58:01;7.47;;;7.07;;
2201;SDS011;1107;48.654;9.250;2022-07-12T02:00:29;7.07;;;6.77;;
2201;SDS011;1107;48.654;9.250;2022-07-12T02:02:57;7.30;;;7.00;;
2201;SDS011;1107;48.654;9.250;2022-07-12T02:05:24;7.50;;;7.10;;
2201;SDS011;1107;48.654;9.250;2022-07-12T02:07:51;6.83;;;6.53;;
2201;SDS011;1107;48.654;9.250;2022-07-12T02:10:19;8.40;;;7.90;;
2201;SDS011;1107;48.654;9.250;2022-07-12T02:12:46;6.97;;;6.57;;
2201;SDS011;1107;48.654;9.250;2022-07-12T02:15:15;7.40;;;7.00;;
2201;SDS011;1107;48.654;9.250;2022-07-12T02:17:42;7.40;;;7.10;;
2201;SDS011;1107;48.654;9.250;2022-07-12T02:20:10;7.60;;;7.20;;
2201;SDS011;1107;48.654;9.250;2022-07-12T02:22:38;7.30;;;6.80;;
2201;SDS011;1107;48.654;9.250;2022-07-12T02:25:05;6.73;;;6.30;;
2201;SDS011;1107;48.654;9.250;2022-07-12T02:27:33;6.40;;;6.10;;
2201;SDS011;1107;48.654;9.250;2022-07-12T02:30:00;6.50;;;6.20;;
2201;SDS011;1107;48.654;9.250;2022-07-12T02:32:29;6.10;;;5.80;;
2201;SDS011;1107;48.654;9.250;2022-07-12T02:34:56;6.70;;;6.40;;
2201;SDS011;1107;48.654;9.250;2022-07-12T02:37:23;6.10;;;5.70;;
2201;SDS011;1107;48.654;9.250;2022-07-12T02:39:50;6.90;;;6.57;;
2201;SDS011;1107;48.654;9.250;2022-07-12T02:42:37;6.97;;;6.57;;
2201;SDS011;1107;48.654;9.250;2022-07-12T02:45:05;6.77;;;6.47;;
2201;SDS011;1107;48.654;9.250;2022-07-12T02:47:37;6.67;;;6.37;;
2201;SDS011;1107;48.654;9.250;2022-07-12T02:50:04;7.83;;;7.43;;
2201;SDS011;1107;48.654;9.250;2022-07-12T02:52:32;7.20;;;6.90;;
2201;SDS011;1107;48.654;9.250;2022-07-12T02:54:59;7.10;;;6.50;;
2201;SDS011;1107;48.654;9.250;2022-07-12T02:57:26;6.80;;;6.50;;
2201;SDS011;1107;48.654;9.250;2022-07-12T02:59:53;6.87;;;6.57;;
2201;SDS011;1107;48.654;9.250;2022-07-12T03:02:20;7.30;;;6.77;;
2201;SDS011;1107;48.654;9.250;2022-07-12T03:04:49;8.40;;;7.03;;
2201;SDS011;1107;48.654;9.250;2022-07-12T03:07:16;6.73;;;6.43;;
2201;SDS011;1107;48.654;9.250;2022-07-12T03:09:43;6.93;;;6.63;;
2201;SDS011;1107;48.654;9.250;2022-07-12T03:12:10;7.07;;;6.77;;
2201;SDS011;1107;48.654;9.250;2022-07-12T03:14:37;7.80;;;7.50;;
2201;SDS011;1107;48.654;9.250;2022-07-12T03:17:04;8.30;;;7.90;;
2201;SDS011;1107;48.654;9.250;2022-07-12T03:19:31;7.40;;;7.10;;
2201;SDS011;1107;48.654;9.250;2022-07-12T03:22:00;11.57;;;8.30;;
2201;SDS011;1107;48.654;9.250;2022-07-12T03:24:27;7.83;;;7.43;;
2201;SDS011;1107;48.654;9.250;2022-07-12T03:26:54;8.70;;;8.10;;
2201;SDS011;1107;48.654;9.250;2022-07-12T03:29:21;7.83;;;7.53;;
2201;SDS011;1107;48.654;9.250;2022-07-12T03:31:48;9.97;;;7.77;;
2201;SDS011;1107;48.654;9.250;2022-07-12T03:34:15;9.13;;;8.40;;
2201;SDS011;1107;48.654;9.250;2022-07-12T03:36:42;8.40;;;7.90;;
2201;SDS011;1107;48.654;9.250;2022-07-12T03:39:10;8.97;;;8.07;;
2201;SDS011;1107;48.654;9.250;2022-07-12T03:41:37;8.80;;;8.30;;
2201;SDS011;1107;48.654;9.250;2022-07-12T03:44:04;8.53;;;8.03;;
2201;SDS011;1107;48.654;9.250;2022-07-12T03:46:32;7.97;;;7.60;;
2201;SDS011;1107;48.654;9.250;2022-07-12T03:48:59;8.07;;;7.77;;
2201;SDS011;1107;48.654;9.250;2022-07-12T03:51:26;8.03;;;7.53;;
2201;SDS011;1107;48.654;9.250;2022-07-12T03:53:53;8.13;;;7.43;;
2201;SDS011;1107;48.654;9.250;2022-07-12T03:56:21;7.37;;;6.97;;
2201;SDS011;1107;48.654;9.250;2022-07-12T03:59:06;7.53;;;7.03;;
2201;SDS011;1107;48.654;9.250;2022-07-12T04:01:33;7.30;;;7.00;;
2201;SDS011;1107;48.654;9.250;2022-07-12T04:04:00;7.37;;;6.97;;
2201;SDS011;1107;48.654;9.250;2022-07-12T04:06:28;8.90;;;8.20;;
2201;SDS011;1107;48.654;9.250;2022-07-12T04:08:55;7.20;;;6.90;;
2201;SDS011;1107;48.654;9.250;2022-07-12T04:11:23;8.20;;;7.60;;
2201;SDS011;1107;48.654;9.250;2022-07-12T04:13:51;9.53;;;8.93;;
2201;SDS011;1107;48.654;9.250;2022-07-12T04:16:18;7.77;;;7.17;;
2201;SDS011;1107;48.654;9.250;2022-07-12T04:18:45;6.93;;;6.60;;
2201;SDS011;1107;48.654;9.250;2022-07-12T04:21:12;7.87;;;7.33;;
2201;SDS011;1107;48.654;9.250;2022-07-12T04:23:39;9.77;;;7.40;;
2201;SDS011;1107;48.654;9.250;2022-07-12T04:26:06;7.43;;;6.73;;
2201;SDS011;1107;48.654;9.250;2022-07-12T04:28:35;7.10;;;6.80;;
2201;SDS011;1107;48.654;9.250;2022-07-12T04:31:02;7.50;;;7.20;;
2201;SDS011;1107;48.654;9.250;2022-07-12T04:33:29;8.50;;;8.07;;
2201;SDS011;1107;48.654;9.250;2022-07-12T04:35:56;8.47;;;8.07;;
2201;SDS011;1107;48.654;9.250;2022-07-12T04:38:23;8.33;;;7.60;;
2201;SDS011;1107;48.654;9.250;2022-07-12T04:40:50;8.60;;;8.13;;
2201;SDS011;1107;48.654;9.250;2022-07-12T04:43:18;8.43;;;8.07;;
2201;SDS011;1107;48.654;9.250;2022-07-12T04:45:46;8.13;;;7.73;;
2201;SDS011;1107;48.654;9.250;2022-07-12T04:48:13;8.20;;;7.80;;
2201;SDS011;1107;48.654;9.250;2022-07-12T04:50:41;8.30;;;8.00;;
2201;SDS011;1107;48.654;9.250;2022-07-12T04:53:08;8.13;;;7.63;;
2201;SDS011;1107;48.654;9.250;2022-07-12T04:55:35;7.97;;;7.57;;
2201;SDS011;1107;48.654;9.250;2022-07-12T04:58:03;8.50;;;7.80;;
2201;SDS011;1107;48.654;9.250;2022-07-12T05:00:30;8.50;;;8.00;;
2201;SDS011;1107;48.654;9.250;2022-07-12T05:02:58;8.70;;;7.87;;
2201;SDS011;1107;48.654;9.250;2022-07-12T05:05:25;9.07;;;8.47;;
2201;SDS011;1107;48.654;9.250;2022-07-12T05:07:52;8.67;;;8.07;;
2201;SDS011;1107;48.654;9.250;2022-07-12T05:10:19;7.77;;;7.37;;
2201;SDS011;1107;48.654;9.250;2022-07-12T05:12:46;8.90;;;8.33;;
2201;SDS011;1107;48.654;9.250;2022-07-12T05:15:13;8.30;;;8.00;;
2201;SDS011;1107;48.654;9.250;2022-07-12T05:17:40;10.13;;;8.20;;
2201;SDS011;1107;48.654;9.250;2022-07-12T05:20:09;9.60;;;8.70;;
2201;SDS011;1107;48.654;9.250;2022-07-12T05:22:37;9.10;;;8.60;;
2201;SDS011;1107;48.654;9.250;2022-07-12T05:25:06;8.80;;;8.30;;
2201;SDS011;1107;48.654;9.250;2022-07-12T05:27:34;8.40;;;8.10;;
2201;SDS011;1107;48.654;9.250;2022-07-12T05:30:01;9.00;;;8.50;;
2201;SDS011;1107;48.654;9.250;2022-07-12T05:32:29;8.60;;;8.20;;
2201;SDS011;1107;48.654;9.250;2022-07-12T05:34:56;8.67;;;7.97;;
2201;SDS011;1107;48.654;9.250;2022-07-12T05:37:24;7.70;;;7.33;;
2201;SDS011;1107;48.654;9.250;2022-07-12T05:39:52;7.40;;;7.10;;
2201;SDS011;1107;48.654;9.250;2022-07-12T05:42:19;7.20;;;6.90;;
2201;SDS011;1107;48.654;9.250;2022-07-12T05:44:46;7.23;;;6.73;;
2201;SDS011;1107;48.654;9.250;2022-07-12T05:47:13;7.83;;;7.30;;
2201;SDS011;1107;48.654;9.250;2022-07-12T05:49:40;8.30;;;7.80;;
2201;SDS011;1107;48.654;9.250;2022-07-12T05:52:07;7.50;;;7.00;;
2201;SDS011;1107;48.654;9.250;2022-07-12T05:54:53;7.20;;;6.90;;
2201;SDS011;1107;48.654;9.250;2022-07-12T05:57:20;7.70;;;7.40;;
2201;SDS011;1107;48.654;9.250;2022-07-12T05:59:48;7.40;;;6.67;;
2201;SDS011;1107;48.654;9.250;2022-07-12T06:02:15;7.87;;;7.40;;
2201;SDS011;1107;48.654;9.250;2022-07-12T06:04:42;7.97;;;7.30;;
2201;SDS011;1107;48.654;9.250;2022-07-12T06:07:09;7.87;;;7.47;;
2201;SDS011;1107;48.654;9.250;2022-07-12T06:09:36;6.63;;;6.23;;
2201;SDS011;1107;48.654;9.250;2022-07-12T06:12:05;8.20;;;6.37;;
2201;SDS011;1107;48.654;9.250;2022-07-12T06:14:32;6.40;;;6.10;;
2201;SDS011;1107;48.654;9.250;2022-07-12T06:17:00;6.43;;;6.03;;
2201;SDS011;1107;48.654;9.250;2022-07-12T06:19:27;6.27;;;5.73;;
2201;SDS011;1107;48.654;9.250;2022-07-12T06:21:54;5.63;;;5.37;;
2201;SDS011;1107;48.654;9.250;2022-07-12T06:24:21;5.70;;;5.43;;
2201;SDS011;1107;48.654;9.250;2022-07-12T06:26:48;5.27;;;5.07;;
2201;SDS011;1107;48.654;9.250;2022-07-12T06:29:16;5.27;;;5.07;;
2201;SDS011;1107;48.654;9.250;2022-07-12T06:31:43;4.87;;;4.67;;
2201;SDS011;1107;48.654;9.250;2022-07-12T06:34:10;4.60;;;4.40;;
2201;SDS011;1107;48.654;9.250;2022-07-12T06:36:37;4.70;;;4.40;;
2201;SDS011;1107;48.654;9.250;2022-07-12T06:39:04;4.83;;;4.63;;
2201;SDS011;1107;48.654;9.250;2022-07-12T06:41:31;4.10;;;3.80;;
2201;SDS011;1107;48.654;9.250;2022-07-12T06:43:58;10.40;;;3.93;;
2201;SDS011;1107;48.654;9.250;2022-07-12T06:46:26;4.50;;;4.30;;
2201;SDS011;1107;48.654;9.250;2022-07-12T06:48:53;3.00;;;2.80;;
2201;SDS011;1107;48.654;9.250;2022-07-12T06:51:20;3.33;;;3.13;;
2201;SDS011;1107;48.654;9.250;2022-07-12T06:53:47;3.03;;;2.83;;
2201;SDS011;1107;48.654;9.250;2022-07-12T06:56:14;3.40;;;3.20;;
2201;SDS011;1107;48.654;9.250;2022-07-12T06:58:41;3.70;;;3.00;;
2201;SDS011;1107;48.654;9.250;2022-07-12T07:01:09;2.70;;;2.50;;
2201;SDS011;1107;48.654;9.250;2022-07-12T07:03:37;2.93;;;2.73;;
2201;SDS011;1107;48.654;9.250;2022-07-12T07:06:05;2.60;;;2.40;;
2201;SDS011;1107;48.654;9.250;2022-07-12T07:08:32;3.30;;;3.10;;
2201;SDS011;1107;48.654;9.250;2022-07-12T07:10:59;2.43;;;2.23;;
2201;SDS011;1107;48.654;9.250;2022-07-12T07:13:26;2.50;;;2.30;;
2201;SDS011;1107;48.654;9.250;2022-07-12T07:15:53;2.60;;;2.40;;
2201;SDS011;1107;48.654;9.250;2022-07-12T07:18:20;2.60;;;2.40;;
2201;SDS011;1107;48.654;9.250;2022-07-12T07:20:48;2.73;;;2.53;;
2201;SDS011;1107;48.654;9.250;2022-07-12T07:23:15;2.17;;;2.03;;
2201;SDS011;1107;48.654;9.250;2022-07-12T07:25:43;2.43;;;2.00;;
2201;SDS011;1107;48.654;9.250;2022-07-12T07:28:10;2.20;;;2.10;;
2201;SDS011;1107;48.654;9.250;2022-07-12T07:30:37;1.90;;;1.80;;
2201;SDS011;1107;48.654;9.250;2022-07-12T07:33:18;2.30;;;2.10;;
2201;SDS011;1107;48.654;9.250;2022-07-12T07:35:46;2.20;;;2.10;;
2201;SDS011;1107;48.654;9.250;2022-07-12T07:38:15;2.57;;;2.37;;
2201;SDS011;1107;48.654;9.250;2022-07-12T07:40:43;2.00;;;1.90;;
2201;SDS011;1107;48.654;9.250;2022-07-12T07:43:10;1.90;;;1.80;;
2201;SDS011;1107;48.654;9.250;2022-07-12T07:45:38;1.97;;;1.70;;
2201;SDS011;1107;48.654;9.250;2022-07-12T07:48:05;1.50;;;1.40;;
2201;SDS011;1107;48.654;9.250;2022-07-12T07:50:32;2.97;;;1.33;;
2201;SDS011;1107;48.654;9.250;2022-07-12T07:52:59;1.50;;;1.37;;
2201;SDS011;1107;48.654;9.250;2022-07-12T07:55:27;1.60;;;1.50;;
2201;SDS011;1107;48.654;9.250;2022-07-12T07:57:54;3.27;;;1.93;;
2201;SDS011;1107;48.654;9.250;2022-07-12T08:00:24;1.70;;;1.60;;
2201;SDS011;1107;48.654;9.250;2022-07-12T08:02:51;1.70;;;1.47;;
2201;SDS011;1107;48.654;9.250;2022-07-12T08:05:20;1.50;;;1.30;;
2201;SDS011;1107;48.654;9.250;2022-07-12T08:07:47;1.50;;;1.10;;
2201;SDS011;1107;48.654;9.250;2022-07-12T08:10:14;2.20;;;1.10;;
2201;SDS011;1107;48.654;9.250;2022-07-12T08:12:42;1.60;;;1.17;;
2201;SDS011;1107;48.654;9.250;2022-07-12T08:15:10;2.20;;;1.20;;
2201;SDS011;1107;48.654;9.250;2022-07-12T08:17:37;1.40;;;1.00;;
2201;SDS011;1107;48.654;9.250;2022-07-12T08:20:04;1.60;;;1.27;;
2201;SDS011;1107;48.654;9.250;2022-07-12T08:22:31;1.80;;;1.40;;
2201;SDS011;1107;48.654;9.250;2022-07-12T08:24:59;1.70;;;1.40;;
2201;SDS011;1107;48.654;9.250;2022-07-12T08:27:26;2.47;;;1.80;;
2201;SDS011;1107;48.654;9.250;2022-07-12T08:29:54;2.00;;;1.80;;
2201;SDS011;1107;48.654;9.250;2022-07-12T08:32:21;2.90;;;1.77;;
2201;SDS011;1107;48.654;9.250;2022-07-12T08:34:48;1.83;;;1.73;;
2201;SDS011;1107;48.654;9.250;2022-07-12T08:37:15;4.50;;;2.00;;
2201;SDS011;1107;48.654;9.250;2022-07-12T08:39:42;2.00;;;1.90;;
2201;SDS011;1107;48.654;9.250;2022-07-12T08:42:11;3.37;;;2.03;;
2201;SDS011;1107;48.654;9.250;2022-07-12T08:44:41;2.00;;;1.80;;
2201;SDS011;1107;48.654;9.250;2022-07-12T08:47:10;1.60;;;1.40;;
2201;SDS011;1107;48.654;9.250;2022-07-12T08:49:37;1.60;;;1.30;;
2201;SDS011;1107;48.654;9.250;2022-07-12T08:52:17;3.30;;;1.60;;
2201;SDS011;1107;48.654;9.250;2022-07-12T08:54:50;2.20;;;2.00;;
2201;SDS011;1107;48.654;9.250;2022-07-12T08:57:27;7.10;;;1.70;;
2201;SDS011;1107;48.654;9.250;2022-07-12T08:59:58;1.93;;;1.83;;
2201;SDS011;1107;48.654;9.250;2022-07-12T09:02:27;2.10;;;1.67;;
2201;SDS011;1107;48.654;9.250;2022-07-12T09:05:05;1.70;;;1.60;;
2201;SDS011;1107;48.654;9.250;2022-07-12T09:07:34;2.40;;;2.20;;
2201;SDS011;1107;48.654;9.250;2022-07-12T09:10:02;2.67;;;2.47;;
2201;SDS011;1107;48.654;9.250;2022-07-12T09:12:30;5.83;;;2.00;;
2201;SDS011;1107;48.654;9.250;2022-07-12T09:15:09;1.83;;;1.73;;
2201;SDS011;1107;48.654;9.250;2022-07-12T09:17:39;3.13;;;1.57;;
2201;SDS011;1107;48.654;9.250;2022-07-12T09:22:36;2.30;;;1.60;;
2201;SDS011;1107;48.654;9.250;2022-07-12T09:25:14;1.80;;;1.70;;
2201;SDS011;1107;48.654;9.250;2022-07-12T09:27:46;1.80;;;1.70;;
2201;SDS011;1107;48.654;9.250;2022-07-12T09:30:17;3.00;;;1.73;;
2201;SDS011;1107;48.654;9.250;2022-07-12T09:32:52;1.87;;;1.77;;
2201;SDS011;1107;48.654;9.250;2022-07-12T09:35:40;1.70;;;1.60;;
2201;SDS011;1107;48.654;9.250;2022-07-12T09:38:25;2.00;;;1.90;;
2201;SDS011;1107;48.654;9.250;2022-07-12T09:40:53;2.00;;;1.40;;
2201;SDS011;1107;48.654;9.250;2022-07-12T09:43:21;1.87;;;1.77;;
2201;SDS011;1107;48.654;9.250;2022-07-12T09:45:49;2.20;;;2.10;;
2201;SDS011;1107;48.654;9.250;2022-07-12T09:48:18;1.90;;;1.80;;
2201;SDS011;1107;48.654;9.250;2022-07-12T09:50:46;2.20;;;2.10;;
2201;SDS011;1107;48.654;9.250;2022-07-12T09:53:16;2.40;;;2.20;;
2201;SDS011;1107;48.654;9.250;2022-07-12T09:55:48;2.10;;;2.00;;
2201;SDS011;1107;48.654;9.250;2022-07-12T09:58:18;2.30;;;2.00;;
2201;SDS011;1107;48.654;9.250;2022-07-12T10:00:50;2.00;;;1.90;;
2201;SDS011;1107;48.654;9.250;2022-07-12T10:03:23;2.40;;;2.23;;
2201;SDS011;1107;48.654;9.250;2022-07-12T10:05:51;1.60;;;1.50;;
2201;SDS011;1107;48.654;9.250;2022-07-12T10:08:19;1.80;;;1.70;;
2201;SDS011;1107;48.654;9.250;2022-07-12T10:10:47;3.10;;;1.40;;
2201;SDS011;1107;48.654;9.250;2022-07-12T10:13:16;2.03;;;1.90;;
2201;SDS011;1107;48.654;9.250;2022-07-12T10:15:45;2.23;;;1.70;;
2201;SDS011;1107;48.654;9.250;2022-07-12T10:18:17;1.60;;;1.50;;
2201;SDS011;1107;48.654;9.250;2022-07-12T10:20:46;1.60;;;1.40;;
2201;SDS011;1107;48.654;9.250;2022-07-12T10:25:59;1.97;;;1.80;;
2201;SDS011;1107;48.654;9.250;2022-07-12T10:31:25;1.73;;;1.63;;
2201;SDS011;1107;48.654;9.250;2022-07-12T10:37:10;2.47;;;1.37;;
2201;SDS011;1107;48.654;9.250;2022-07-12T10:39:38;1.80;;;1.50;;
2201;SDS011;1107;48.654;9.250;2022-07-12T10:42:14;7.20;;;1.60;;
2201;SDS011;1107;48.654;9.250;2022-07-12T10:44:45;1.67;;;1.40;;
2201;SDS011;1107;48.654;9.250;2022-07-12T10:47:14;1.77;;;1.30;;
2201;SDS011;1107;48.654;9.250;2022-07-12T10:49:46;1.60;;;1.20;;
2201;SDS011;1107;48.654;9.250;2022-07-12T10:52:23;1.50;;;1.20;;
2201;SDS011;1107;48.654;9.250;2022-07-12T10:57:45;1.67;;;1.27;;
2201;SDS011;1107;48.654;9.250;2022-07-12T11:00:16;1.67;;;1.30;;
2201;SDS011;1107;48.654;9.250;2022-07-12T11:02:44;1.60;;;1.10;;
2201;SDS011;1107;48.654;9.250;2022-07-12T11:05:12;1.50;;;1.37;;
2201;SDS011;1107;48.654;9.250;2022-07-12T11:07:40;1.50;;;1.30;;
2201;SDS011;1107;48.654;9.250;2022-07-12T11:10:16;1.73;;;1.63;;
2201;SDS011;1107;48.654;9.250;2022-07-12T11:12:43;1.50;;;1.00;;
2201;SDS011;1107;48.654;9.250;2022-07-12T11:15:10;1.80;;;1.30;;
2201;SDS011;1107;48.654;9.250;2022-07-12T11:17:38;1.50;;;1.17;;
2201;SDS011;1107;48.654;9.250;2022-07-12T11:20:09;1.50;;;1.20;;
2201;SDS011;1107;48.654;9.250;2022-07-12T11:22:39;1.70;;;1.10;;
2201;SDS011;1107;48.654;9.250;2022-07-12T11:25:09;1.50;;;1.10;;
2201;SDS011;1107;48.654;9.250;2022-07-12T11:27:38;1.60;;;1.30;;
2201;SDS011;1107;48.654;9.250;2022-07-12T11:30:05;7.00;;;1.20;;
2201;SDS011;1107;48.654;9.250;2022-07-12T11:32:38;1.67;;;1.20;;
2201;SDS011;1107;48.654;9.250;2022-07-12T11:35:18;1.70;;;1.17;;
2201;SDS011;1107;48.654;9.250;2022-07-12T11:37:48;2.43;;;1.20;;
2201;SDS011;1107;48.654;9.250;2022-07-12T11:40:20;1.50;;;0.93;;
2201;SDS011;1107;48.654;9.250;2022-07-12T11:42:52;1.60;;;1.30;;
2201;SDS011;1107;48.654;9.250;2022-07-12T11:45:20;1.60;;;1.00;;
2201;SDS011;1107;48.654;9.250;2022-07-12T11:47:47;3.93;;;0.90;;
2201;SDS011;1107;48.654;9.250;2022-07-12T11:50:16;2.70;;;1.30;;
2201;SDS011;1107;48.654;9.250;2022-07-12T11:52:43;1.40;;;0.90;;
2201;SDS011;1107;48.654;9.250;2022-07-12T11:55:12;3.73;;;1.07;;
2201;SDS011;1107;48.654;9.250;2022-07-12T11:57:39;1.50;;;1.00;;
2201;SDS011;1107;48.654;9.250;2022-07-12T12:00:13;1.40;;;0.83;;
2201;SDS011;1107;48.654;9.250;2022-07-12T12:02:44;1.60;;;1.10;;
2201;SDS011;1107;48.654;9.250;2022-07-12T12:05:12;1.50;;;0.90;;
2201;SDS011;1107;48.654;9.250;2022-07-12T12:07:40;1.60;;;1.00;;
2201;SDS011;1107;48.654;9.250;2022-07-12T12:10:10;1.60;;;1.10;;
2201;SDS011;1107;48.654;9.250;2022-07-12T12:12:41;2.37;;;1.00;;
2201;SDS011;1107;48.654;9.250;2022-07-12T12:15:09;1.43;;;1.07;;
2201;SDS011;1107;48.654;9.250;2022-07-12T12:17:42;1.50;;;0.90;;
2201;SDS011;1107;48.654;9.250;2022-07-12T12:20:11;1.60;;;1.00;;
2201;SDS011;1107;48.654;9.250;2022-07-12T12:22:39;1.50;;;1.13;;
2201;SDS011;1107;48.654;9.250;2022-07-12T12:25:06;4.23;;;1.07;;
2201;SDS011;1107;48.654;9.250;2022-07-12T12:27:43;1.53;;;1.10;;
2201;SDS011;1107;48.654;9.250;2022-07-12T12:30:11;2.87;;;1.00;;
2201;SDS011;1107;48.654;9.250;2022-07-12T12:32:42;1.67;;;1.10;;
2201;SDS011;1107;48.654;9.250;2022-07-12T12:35:10;1.60;;;1.10;;
2201;SDS011;1107;48.654;9.250;2022-07-12T12:37:38;1.50;;;1.10;;
2201;SDS011;1107;48.654;9.250;2022-07-12T12:40:06;1.70;;;0.90;;
2201;SDS011;1107;48.654;9.250;2022-07-12T12:42:34;1.60;;;0.90;;
2201;SDS011;1107;48.654;9.250;2022-07-12T12:45:04;1.50;;;0.90;;
2201;SDS011;1107;48.654;9.250;2022-07-12T12:50:36;1.60;;;1.10;;
2201;SDS011;1107;48.654;9.250;2022-07-12T12:53:11;1.47;;;0.97;;
2201;SDS011;1107;48.654;9.250;2022-07-12T12:55:39;1.60;;;1.00;;
2201;SDS011;1107;48.654;9.250;2022-07-12T12:58:07;1.50;;;1.00;;
2201;SDS011;1107;48.654;9.250;2022-07-12T13:00:36;1.80;;;1.00;;
2201;SDS011;1107;48.654;9.250;2022-07-12T13:03:05;1.40;;;0.83;;
2201;SDS011;1107;48.654;9.250;2022-07-12T13:05:33;1.50;;;1.10;;
2201;SDS011;1107;48.654;9.250;2022-07-12T13:08:00;2.40;;;1.20;;
2201;SDS011;1107;48.654;9.250;2022-07-12T13:10:28;2.27;;;0.90;;
2201;SDS011;1107;48.654;9.250;2022-07-12T13:12:55;1.50;;;1.10;;
2201;SDS011;1107;48.654;9.250;2022-07-12T13:15:23;1.53;;;1.07;;
2201;SDS011;1107;48.654;9.250;2022-07-12T13:17:51;3.20;;;1.07;;
2201;SDS011;1107;48.654;9.250;2022-07-12T13:20:18;1.40;;;0.90;;
2201;SDS011;1107;48.654;9.250;2022-07-12T13:22:46;1.50;;;1.00;;
2201;SDS011;1107;48.654;9.250;2022-07-12T13:25:13;1.40;;;0.90;;
2201;SDS011;1107;48.654;9.250;2022-07-12T13:27:41;2.37;;;0.97;;
2201;SDS011;1107;48.654;9.250;2022-07-12T13:30:09;1.50;;;0.93;;
2201;SDS011;1107;48.654;9.250;2022-07-12T13:32:37;7.63;;;1.00;;
2201;SDS011;1107;48.654;9.250;2022-07-12T13:35:07;1.50;;;1.10;;
2201;SDS011;1107;48.654;9.250;2022-07-12T13:37:36;2.13;;;0.80;;
2201;SDS011;1107;48.654;9.250;2022-07-12T13:40:04;1.50;;;0.80;;
2201;SDS011;1107;48.654;9.250;2022-07-12T13:42:43;1.47;;;1.00;;
2201;SDS011;1107;48.654;9.250;2022-07-12T13:45:12;2.40;;;0.90;;
2201;SDS011;1107;48.654;9.250;2022-07-12T13:47:40;1.50;;;1.10;;
2201;SDS011;1107;48.654;9.250;2022-07-12T13:50:09;1.50;;;0.93;;
2201;SDS011;1107;48.654;9.250;2022-07-12T13:52:38;1.40;;;0.90;;
2201;SDS011;1107;48.654;9.250;2022-07-12T13:55:06;1.50;;;0.90;;
2201;SDS011;1107;48.654;9.250;2022-07-12T13:57:34;1.40;;;0.90;;
2201;SDS011;1107;48.654;9.250;2022-07-12T14:00:03;1.40;;;0.87;;
2201;SDS011;1107;48.654;9.250;2022-07-12T14:02:34;2.00;;;0.87;;
2201;SDS011;1107;48.654;9.250;2022-07-12T14:05:02;2.47;;;0.80;;
2201;SDS011;1107;48.654;9.250;2022-07-12T14:07:30;1.33;;;0.73;;
2201;SDS011;1107;48.654;9.250;2022-07-12T14:09:58;1.40;;;1.00;;
2201;SDS011;1107;48.654;9.250;2022-07-12T14:12:26;1.30;;;0.70;;
2201;SDS011;1107;48.654;9.250;2022-07-12T14:14:53;1.40;;;0.70;;
2201;SDS011;1107;48.654;9.250;2022-07-12T14:17:40;1.50;;;0.93;;
2201;SDS011;1107;48.654;9.250;2022-07-12T14:20:08;6.17;;;0.97;;
2201;SDS011;1107;48.654;9.250;2022-07-12T14:22:38;1.40;;;0.70;;
2201;SDS011;1107;48.654;9.250;2022-07-12T14:25:06;1.40;;;0.90;;
2201;SDS011;1107;48.654;9.250;2022-07-12T14:27:34;1.40;;;0.90;;
2201;SDS011;1107;48.654;9.250;2022-07-12T14:30:02;1.50;;;1.23;;
2201;SDS011;1107;48.654;9.250;2022-07-12T14:32:31;2.00;;;1.20;;
2201;SDS011;1107;48.654;9.250;2022-07-12T14:34:58;1.60;;;1.30;;
2201;SDS011;1107;48.654;9.250;2022-07-12T14:37:25;1.57;;;1.07;;
2201;SDS011;1107;48.654;9.250;2022-07-12T14:39:53;1.40;;;0.80;;
2201;SDS011;1107;48.654;9.250;2022-07-12T14:42:20;1.70;;;1.10;;
2201;SDS011;1107;48.654;9.250;2022-07-12T14:44:47;1.90;;;0.80;;
2201;SDS011;1107;48.654;9.250;2022-07-12T14:47:14;1.40;;;0.80;;
2201;SDS011;1107;48.654;9.250;2022-07-12T14:49:42;1.50;;;0.97;;
2201;SDS011;1107;48.654;9.250;2022-07-12T14:52:09;1.40;;;0.80;;
2201;SDS011;1107;48.654;9.250;2022-07-12T14:54:37;1.90;;;1.00;;
2201;SDS011;1107;48.654;9.250;2022-07-12T14:57:05;1.60;;;1.13;;
2201;SDS011;1107;48.654;9.250;2022-07-12T14:59:32;2.37;;;1.00;;
2201;SDS011;1107;48.654;9.250;2022-07-12T15:01:59;2.07;;;0.80;;
2201;SDS011;1107;48.654;9.250;2022-07-12T15:04:27;4.43;;;0.90;;
2201;SDS011;1107;48.654;9.250;2022-07-12T15:06:54;1.40;;;0.80;;
2201;SDS011;1107;48.654;9.250;2022-07-12T15:09:21;1.50;;;0.80;;
2201;SDS011;1107;48.654;9.250;2022-07-12T15:11:49;1.47;;;1.00;;
2201;SDS011;1107;48.654;9.250;2022-07-12T15:14:17;1.40;;;0.70;;
2201;SDS011;1107;48.654;9.250;2022-07-12T15:16:44;1.40;;;0.80;;
2201;SDS011;1107;48.654;9.250;2022-07-12T15:19:11;1.40;;;0.80;;
2201;SDS011;1107;48.654;9.250;2022-07-12T15:21:40;1.40;;;0.80;;
2201;SDS011;1107;48.654;9.250;2022-07-12T15:24:07;1.37;;;0.70;;
2201;SDS011;1107;48.654;9.250;2022-07-12T15:26:34;1.47;;;0.90;;
2201;SDS011;1107;48.654;9.250;2022-07-12T15:29:03;1.50;;;0.70;;
2201;SDS011;1107;48.654;9.250;2022-07-12T15:31:32;1.60;;;0.90;;
2201;SDS011;1107;48.654;9.250;2022-07-12T15:33:59;4.37;;;1.57;;
2201;SDS011;1107;48.654;9.250;2022-07-12T15:36:27;2.53;;;0.77;;
2201;SDS011;1107;48.654;9.250;2022-07-12T15:38:54;1.40;;;0.90;;
2201;SDS011;1107;48.654;9.250;2022-07-12T15:41:21;1.40;;;1.00;;